DAL1203 KLAS-KLAX
Flight info
| Callsign | DAL1203 |
|---|---|
| Flight time | 0h 57m |
| Altitude | 28000 |
| Route | RADYR2 BLAQQ SHTNR ANJLL4 |
| Aircraft | A333/H-SDE3GHIJ2J3J5M1RVWXY/LB2D1 |
Departure
| Time | 2026-05-04 01:24 |
|---|---|
| Airport | Harry Reid International Airport (KLAS) |
Arrival
| Time | 2026-05-04 02:22 |
|---|---|
| Airport | Los Angeles International Airport (KLAX) |
| Time | Latitude | Longitude | Altitude | Speed | Heading |
|---|---|---|---|---|---|
| 2026-05-04 01:02 | 36.07956 | -115.12696 | 2114 ft | 0 kts | 269° |
| 2026-05-04 01:18 | 36.07956 | -115.12699 | 2114 ft | 1 kts | 269° |
| 2026-05-04 01:18 | 36.07956 | -115.12716 | 2114 ft | 1 kts | 262° |
| 2026-05-04 01:19 | 36.07954 | -115.12719 | 2114 ft | 0 kts | 244° |
| 2026-05-04 01:19 | 36.07952 | -115.12720 | 2114 ft | 0 kts | 232° |
| 2026-05-04 01:19 | 36.07950 | -115.12721 | 2114 ft | 0 kts | 218° |
| 2026-05-04 01:19 | 36.07948 | -115.12721 | 2114 ft | 0 kts | 207° |
| 2026-05-04 01:20 | 36.07939 | -115.12723 | 2117 ft | 3 kts | 195° |
| 2026-05-04 01:20 | 36.07916 | -115.12711 | 2115 ft | 6 kts | 152° |
| 2026-05-04 01:20 | 36.07874 | -115.12651 | 2116 ft | 15 kts | 130° |
| 2026-05-04 01:20 | 36.07830 | -115.12533 | 2120 ft | 16 kts | 95° |
| 2026-05-04 01:21 | 36.07831 | -115.12408 | 2122 ft | 14 kts | 93° |
| 2026-05-04 01:21 | 36.07828 | -115.12337 | 2126 ft | 7 kts | 95° |
| 2026-05-04 01:21 | 36.07826 | -115.12318 | 2125 ft | 0 kts | 95° |
| 2026-05-04 01:21 | 36.07826 | -115.12315 | 2125 ft | 1 kts | 95° |
| 2026-05-04 01:22 | 36.07824 | -115.12298 | 2123 ft | 3 kts | 97° |
| 2026-05-04 01:22 | 36.07818 | -115.12263 | 2122 ft | 5 kts | 109° |
| 2026-05-04 01:22 | 36.07798 | -115.12222 | 2124 ft | 9 kts | 125° |
| 2026-05-04 01:22 | 36.07717 | -115.12125 | 2127 ft | 19 kts | 157° |
| 2026-05-04 01:23 | 36.07645 | -115.12136 | 2129 ft | 3 kts | 211° |
| 2026-05-04 01:23 | 36.07644 | -115.12164 | 2129 ft | 10 kts | 269° |
| 2026-05-04 01:23 | 36.07640 | -115.12548 | 2127 ft | 85 kts | 268° |
| 2026-05-04 01:23 | 36.07627 | -115.13588 | 2130 ft | 155 kts | 270° |
| 2026-05-04 01:24 | 36.07628 | -115.15127 | 2469 ft | 195 kts | 267° |
| 2026-05-04 01:24 | 36.07636 | -115.16887 | 3347 ft | 210 kts | 263° |
| 2026-05-04 01:24 | 36.07567 | -115.18689 | 4474 ft | 209 kts | 258° |
| 2026-05-04 01:24 | 36.07171 | -115.20315 | 5674 ft | 193 kts | 230° |
| 2026-05-04 01:25 | 36.06069 | -115.21182 | 6631 ft | 196 kts | 201° |
| 2026-05-04 01:25 | 36.04729 | -115.21782 | 7325 ft | 209 kts | 199° |
| 2026-05-04 01:25 | 36.03402 | -115.22319 | 8683 ft | 187 kts | 198° |
| 2026-05-04 01:25 | 36.02302 | -115.22727 | 10221 ft | 150 kts | 197° |
| 2026-05-04 01:26 | 36.01366 | -115.23058 | 11192 ft | 136 kts | 197° |
| 2026-05-04 01:26 | 36.00438 | -115.23414 | 11661 ft | 149 kts | 198° |
| 2026-05-04 01:26 | 35.99355 | -115.23812 | 11941 ft | 176 kts | 198° |
| 2026-05-04 01:26 | 35.98125 | -115.24304 | 12383 ft | 196 kts | 198° |
| 2026-05-04 01:27 | 35.96780 | -115.24823 | 12971 ft | 213 kts | 198° |
| 2026-05-04 01:27 | 35.95295 | -115.25378 | 13611 ft | 227 kts | 197° |
| 2026-05-04 01:27 | 35.93751 | -115.25943 | 14242 ft | 240 kts | 197° |
| 2026-05-04 01:27 | 35.92108 | -115.26536 | 14874 ft | 253 kts | 198° |
| 2026-05-04 01:28 | 35.90390 | -115.27219 | 15522 ft | 266 kts | 199° |
| 2026-05-04 01:28 | 35.88612 | -115.27987 | 16186 ft | 277 kts | 200° |
| 2026-05-04 01:28 | 35.86765 | -115.28851 | 16792 ft | 290 kts | 202° |
| 2026-05-04 01:28 | 35.84844 | -115.29776 | 17372 ft | 303 kts | 202° |
| 2026-05-04 01:29 | 35.82848 | -115.30751 | 17996 ft | 314 kts | 202° |
| 2026-05-04 01:29 | 35.80798 | -115.31768 | 18524 ft | 325 kts | 204° |
| 2026-05-04 01:29 | 35.78676 | -115.32836 | 19052 ft | 334 kts | 204° |
| 2026-05-04 01:29 | 35.76511 | -115.33952 | 19611 ft | 342 kts | 206° |
| 2026-05-04 01:30 | 35.74311 | -115.35127 | 20230 ft | 346 kts | 208° |
| 2026-05-04 01:30 | 35.72117 | -115.36381 | 20867 ft | 350 kts | 210° |
| 2026-05-04 01:30 | 35.69915 | -115.37685 | 21513 ft | 352 kts | 211° |
| 2026-05-04 01:30 | 35.67679 | -115.38969 | 22146 ft | 357 kts | 208° |
| 2026-05-04 01:31 | 35.65289 | -115.39912 | 22820 ft | 366 kts | 199° |
| 2026-05-04 01:31 | 35.62734 | -115.40310 | 23513 ft | 375 kts | 191° |
| 2026-05-04 01:31 | 35.60097 | -115.40204 | 24080 ft | 385 kts | 183° |
| 2026-05-04 01:31 | 35.57449 | -115.39728 | 24795 ft | 381 kts | 182° |
| 2026-05-04 01:32 | 35.54900 | -115.39268 | 26032 ft | 358 kts | 183° |
| 2026-05-04 01:32 | 35.52538 | -115.38845 | 27464 ft | 331 kts | 185° |
| 2026-05-04 01:32 | 35.50272 | -115.38443 | 28074 ft | 331 kts | 185° |
| 2026-05-04 01:32 | 35.47959 | -115.38096 | 28285 ft | 339 kts | 186° |
| 2026-05-04 01:33 | 35.45596 | -115.37817 | 28538 ft | 344 kts | 188° |
| 2026-05-04 01:33 | 35.43200 | -115.37689 | 28805 ft | 345 kts | 192° |
| 2026-05-04 01:33 | 35.40737 | -115.37685 | 28593 ft | 365 kts | 192° |
| 2026-05-04 01:33 | 35.38142 | -115.37723 | 28537 ft | 379 kts | 192° |
| 2026-05-04 01:34 | 35.35462 | -115.37755 | 28546 ft | 392 kts | 191° |
| 2026-05-04 01:34 | 35.29911 | -115.38241 | 28535 ft | 405 kts | 199° |
| 2026-05-04 01:35 | 35.24349 | -115.39843 | 28749 ft | 417 kts | 204° |
| 2026-05-04 01:35 | 35.18686 | -115.41962 | 28628 ft | 438 kts | 206° |
| 2026-05-04 01:35 | 35.15773 | -115.43191 | 28485 ft | 447 kts | 208° |
| 2026-05-04 01:36 | 35.12836 | -115.44548 | 28462 ft | 454 kts | 210° |
| 2026-05-04 01:36 | 35.10032 | -115.46166 | 28573 ft | 433 kts | 214° |
| 2026-05-04 01:36 | 35.07493 | -115.47824 | 28693 ft | 409 kts | 216° |
| 2026-05-04 01:36 | 35.05081 | -115.49531 | 28825 ft | 398 kts | 218° |
| 2026-05-04 01:37 | 35.02719 | -115.51251 | 28963 ft | 392 kts | 218° |
| 2026-05-04 01:37 | 35.00380 | -115.52927 | 29089 ft | 387 kts | 218° |
| 2026-05-04 01:37 | 34.98067 | -115.54560 | 29212 ft | 382 kts | 218° |
| 2026-05-04 01:38 | 34.93688 | -115.58085 | 28860 ft | 371 kts | 222° |
| 2026-05-04 01:38 | 34.91632 | -115.59894 | 28528 ft | 358 kts | 223° |
| 2026-05-04 01:38 | 34.89682 | -115.61692 | 28216 ft | 346 kts | 225° |
| 2026-05-04 01:38 | 34.87825 | -115.63489 | 27871 ft | 335 kts | 226° |
| 2026-05-04 01:39 | 34.86062 | -115.65282 | 27583 ft | 326 kts | 227° |
| 2026-05-04 01:39 | 34.84380 | -115.67078 | 27310 ft | 317 kts | 229° |
| 2026-05-04 01:39 | 34.82778 | -115.68879 | 27040 ft | 310 kts | 230° |
| 2026-05-04 01:39 | 34.81248 | -115.70689 | 26759 ft | 307 kts | 231° |
| 2026-05-04 01:40 | 34.79751 | -115.72571 | 26406 ft | 311 kts | 232° |
| 2026-05-04 01:40 | 34.78284 | -115.74526 | 26086 ft | 314 kts | 233° |
| 2026-05-04 01:40 | 34.76849 | -115.76551 | 25771 ft | 317 kts | 234° |
| 2026-05-04 01:40 | 34.75513 | -115.78675 | 25483 ft | 316 kts | 239° |
| 2026-05-04 01:41 | 34.74365 | -115.80968 | 25381 ft | 319 kts | 242° |
| 2026-05-04 01:41 | 34.73325 | -115.83322 | 25588 ft | 311 kts | 245° |
| 2026-05-04 01:41 | 34.72422 | -115.85581 | 26291 ft | 291 kts | 246° |
| 2026-05-04 01:41 | 34.71566 | -115.87724 | 26942 ft | 273 kts | 246° |
| 2026-05-04 01:42 | 34.70752 | -115.89738 | 27553 ft | 259 kts | 246° |
| 2026-05-04 01:42 | 34.69940 | -115.91656 | 27944 ft | 255 kts | 246° |
| 2026-05-04 01:42 | 34.69167 | -115.93634 | 28287 ft | 256 kts | 248° |
| 2026-05-04 01:42 | 34.68452 | -115.95625 | 28656 ft | 257 kts | 249° |
| 2026-05-04 01:43 | 34.67792 | -115.97619 | 29020 ft | 258 kts | 251° |
| 2026-05-04 01:43 | 34.67170 | -115.99665 | 29371 ft | 259 kts | 252° |
| 2026-05-04 01:43 | 34.66602 | -116.01737 | 29735 ft | 259 kts | 254° |
| 2026-05-04 01:43 | 34.66082 | -116.03826 | 29998 ft | 261 kts | 253° |
| 2026-05-04 01:44 | 34.65441 | -116.05959 | 29831 ft | 277 kts | 250° |
| 2026-05-04 01:44 | 34.64670 | -116.08183 | 29635 ft | 293 kts | 248° |
| 2026-05-04 01:44 | 34.63797 | -116.10486 | 29407 ft | 308 kts | 248° |
| 2026-05-04 01:44 | 34.62878 | -116.12897 | 29146 ft | 322 kts | 247° |
| 2026-05-04 01:45 | 34.61889 | -116.15400 | 28852 ft | 336 kts | 245° |
| 2026-05-04 01:45 | 34.60733 | -116.17928 | 28512 ft | 350 kts | 242° |
| 2026-05-04 01:45 | 34.58028 | -116.23111 | 27760 ft | 377 kts | 240° |
| 2026-05-04 01:46 | 34.56593 | -116.25831 | 27370 ft | 389 kts | 240° |
| 2026-05-04 01:46 | 34.55102 | -116.28631 | 26963 ft | 400 kts | 239° |
| 2026-05-04 01:46 | 34.53558 | -116.31489 | 26556 ft | 410 kts | 239° |
| 2026-05-04 01:46 | 34.51962 | -116.34399 | 26110 ft | 419 kts | 239° |
| 2026-05-04 01:47 | 34.50345 | -116.37390 | 25665 ft | 428 kts | 239° |
| 2026-05-04 01:47 | 34.48753 | -116.40444 | 25412 ft | 430 kts | 240° |
| 2026-05-04 01:47 | 34.47194 | -116.43487 | 26371 ft | 414 kts | 240° |
| 2026-05-04 01:47 | 34.45706 | -116.46412 | 27347 ft | 402 kts | 241° |
| 2026-05-04 01:48 | 34.44272 | -116.49286 | 28084 ft | 396 kts | 242° |
| 2026-05-04 01:48 | 34.42854 | -116.52153 | 28483 ft | 398 kts | 242° |
| 2026-05-04 01:48 | 34.41435 | -116.55049 | 28608 ft | 405 kts | 242° |
| 2026-05-04 01:48 | 34.39983 | -116.58052 | 28281 ft | 420 kts | 242° |
| 2026-05-04 01:49 | 34.38533 | -116.61088 | 29148 ft | 406 kts | 242° |
| 2026-05-04 01:49 | 34.37129 | -116.64038 | 29780 ft | 403 kts | 243° |
| 2026-05-04 01:49 | 34.35788 | -116.66896 | 29715 ft | 390 kts | 243° |
| 2026-05-04 01:49 | 34.34465 | -116.69740 | 29209 ft | 387 kts | 243° |
| 2026-05-04 01:50 | 34.33138 | -116.72597 | 28198 ft | 393 kts | 243° |
| 2026-05-04 01:50 | 34.31781 | -116.75521 | 26982 ft | 405 kts | 242° |
| 2026-05-04 01:50 | 34.30384 | -116.78536 | 25279 ft | 419 kts | 242° |
| 2026-05-04 01:50 | 34.28945 | -116.81667 | 23970 ft | 430 kts | 242° |
| 2026-05-04 01:51 | 34.27539 | -116.84845 | 23047 ft | 425 kts | 243° |
| 2026-05-04 01:51 | 34.26145 | -116.87994 | 21951 ft | 423 kts | 242° |
| 2026-05-04 01:51 | 34.24761 | -116.91099 | 21049 ft | 417 kts | 243° |
| 2026-05-04 01:51 | 34.23407 | -116.94182 | 20084 ft | 409 kts | 243° |
| 2026-05-04 01:52 | 34.22074 | -116.97232 | 18951 ft | 410 kts | 243° |
| 2026-05-04 01:52 | 34.20776 | -117.00280 | 18100 ft | 409 kts | 243° |
| 2026-05-04 01:52 | 34.19507 | -117.03306 | 16989 ft | 407 kts | 244° |
| 2026-05-04 01:52 | 34.18284 | -117.06337 | 16029 ft | 398 kts | 244° |
| 2026-05-04 01:53 | 34.17015 | -117.09325 | 14858 ft | 399 kts | 242° |
| 2026-05-04 01:53 | 34.15723 | -117.12297 | 14146 ft | 395 kts | 242° |
| 2026-05-04 01:53 | 34.14550 | -117.15276 | 13051 ft | 397 kts | 245° |
| 2026-05-04 01:53 | 34.13447 | -117.18283 | 12159 ft | 392 kts | 244° |
| 2026-05-04 01:54 | 34.12424 | -117.21273 | 11317 ft | 385 kts | 248° |
| 2026-05-04 01:54 | 34.11500 | -117.24307 | 10510 ft | 380 kts | 248° |
| 2026-05-04 01:54 | 34.10608 | -117.27317 | 9740 ft | 376 kts | 249° |
| 2026-05-04 01:54 | 34.09744 | -117.30273 | 8921 ft | 372 kts | 249° |
| 2026-05-04 01:55 | 34.08928 | -117.33097 | 9098 ft | 341 kts | 250° |
| 2026-05-04 01:55 | 34.08245 | -117.35683 | 9551 ft | 307 kts | 252° |
| 2026-05-04 01:55 | 34.07746 | -117.38080 | 9706 ft | 285 kts | 255° |
| 2026-05-04 01:55 | 34.07376 | -117.40354 | 9653 ft | 271 kts | 257° |
| 2026-05-04 01:56 | 34.07057 | -117.42558 | 9475 ft | 264 kts | 257° |
| 2026-05-04 01:56 | 34.06762 | -117.44730 | 9215 ft | 260 kts | 257° |
| 2026-05-04 01:56 | 34.06481 | -117.46808 | 9158 ft | 249 kts | 257° |
| 2026-05-04 01:56 | 34.06206 | -117.48828 | 9083 ft | 239 kts | 258° |
| 2026-05-04 01:57 | 34.05956 | -117.50776 | 8961 ft | 232 kts | 258° |
| 2026-05-04 01:57 | 34.05701 | -117.52643 | 8948 ft | 222 kts | 257° |
| 2026-05-04 01:57 | 34.05449 | -117.54473 | 8820 ft | 222 kts | 258° |
| 2026-05-04 01:57 | 34.05216 | -117.56326 | 8648 ft | 225 kts | 258° |
| 2026-05-04 01:58 | 34.05045 | -117.57589 | 8520 ft | 228 kts | 257° |
| 2026-05-04 01:58 | 34.04688 | -117.60118 | 8197 ft | 236 kts | 257° |
| 2026-05-04 01:58 | 34.04376 | -117.62118 | 7916 ft | 246 kts | 256° |
| 2026-05-04 01:58 | 34.04053 | -117.64084 | 8101 ft | 235 kts | 256° |
| 2026-05-04 01:59 | 34.03863 | -117.65350 | 8199 ft | 228 kts | 257° |
| 2026-05-04 01:59 | 34.03587 | -117.67225 | 8376 ft | 218 kts | 257° |
| 2026-05-04 01:59 | 34.03333 | -117.68995 | 8511 ft | 213 kts | 257° |
| 2026-05-04 01:59 | 34.03078 | -117.70746 | 8551 ft | 211 kts | 257° |
| 2026-05-04 02:00 | 34.02823 | -117.72464 | 8544 ft | 213 kts | 257° |
| 2026-05-04 02:00 | 34.02480 | -117.74753 | 8906 ft | 205 kts | 258° |
| 2026-05-04 02:00 | 34.02351 | -117.75882 | 9094 ft | 206 kts | 259° |
| 2026-05-04 02:00 | 34.02157 | -117.77617 | 9234 ft | 213 kts | 259° |
| 2026-05-04 02:01 | 34.01983 | -117.79422 | 9308 ft | 222 kts | 261° |
| 2026-05-04 02:01 | 34.01812 | -117.81328 | 9264 ft | 237 kts | 261° |
| 2026-05-04 02:01 | 34.01655 | -117.83376 | 9127 ft | 254 kts | 262° |
| 2026-05-04 02:01 | 34.01516 | -117.85576 | 8909 ft | 273 kts | 263° |
| 2026-05-04 02:02 | 34.01392 | -117.87940 | 8587 ft | 293 kts | 264° |
| 2026-05-04 02:02 | 34.01279 | -117.90470 | 8283 ft | 310 kts | 264° |
| 2026-05-04 02:02 | 34.01162 | -117.93090 | 8191 ft | 316 kts | 265° |
| 2026-05-04 02:02 | 34.01066 | -117.95754 | 8203 ft | 319 kts | 265° |
| 2026-05-04 02:03 | 34.00966 | -117.98409 | 8349 ft | 313 kts | 264° |
| 2026-05-04 02:03 | 34.00862 | -118.00964 | 8651 ft | 298 kts | 265° |
| 2026-05-04 02:03 | 34.00804 | -118.03432 | 8825 ft | 291 kts | 267° |
| 2026-05-04 02:03 | 34.00822 | -118.05856 | 8869 ft | 288 kts | 268° |
| 2026-05-04 02:04 | 34.00747 | -118.08257 | 8831 ft | 288 kts | 265° |
| 2026-05-04 02:04 | 34.00631 | -118.10680 | 8718 ft | 291 kts | 265° |
| 2026-05-04 02:04 | 34.00442 | -118.13139 | 8450 ft | 299 kts | 261° |
| 2026-05-04 02:04 | 34.00134 | -118.15652 | 8176 ft | 306 kts | 260° |
| 2026-05-04 02:05 | 33.99834 | -118.18178 | 8138 ft | 300 kts | 261° |
| 2026-05-04 02:05 | 33.99551 | -118.20574 | 8553 ft | 276 kts | 259° |
| 2026-05-04 02:05 | 33.99259 | -118.22780 | 8769 ft | 264 kts | 259° |
| 2026-05-04 02:05 | 33.98971 | -118.24999 | 8220 ft | 274 kts | 259° |
| 2026-05-04 02:06 | 33.98667 | -118.27298 | 7846 ft | 278 kts | 259° |
| 2026-05-04 02:06 | 33.98356 | -118.29516 | 8041 ft | 259 kts | 261° |
| 2026-05-04 02:06 | 33.98299 | -118.31606 | 8232 ft | 242 kts | 270° |
| 2026-05-04 02:06 | 33.98404 | -118.33586 | 8179 ft | 234 kts | 269° |
| 2026-05-04 02:07 | 33.98143 | -118.35468 | 7987 ft | 228 kts | 252° |
| 2026-05-04 02:07 | 33.97578 | -118.37327 | 7345 ft | 244 kts | 244° |
| 2026-05-04 02:07 | 33.96738 | -118.39208 | 5754 ft | 280 kts | 242° |
| 2026-05-04 02:07 | 33.95750 | -118.41443 | 4367 ft | 317 kts | 249° |
| 2026-05-04 02:08 | 33.95310 | -118.43988 | 4043 ft | 305 kts | 269° |
| 2026-05-04 02:08 | 33.95674 | -118.46446 | 3974 ft | 288 kts | 291° |
| 2026-05-04 02:08 | 33.96640 | -118.48412 | 4206 ft | 264 kts | 308° |
| 2026-05-04 02:08 | 33.97975 | -118.49797 | 4658 ft | 239 kts | 330° |
| 2026-05-04 02:09 | 33.99438 | -118.50378 | 5006 ft | 213 kts | 360° |
| 2026-05-04 02:09 | 34.00672 | -118.49818 | 5376 ft | 182 kts | 51° |
| 2026-05-04 02:09 | 34.01232 | -118.48460 | 5222 ft | 186 kts | 75° |
| 2026-05-04 02:09 | 34.01679 | -118.46967 | 5034 ft | 194 kts | 65° |
| 2026-05-04 02:10 | 34.02217 | -118.45424 | 4877 ft | 205 kts | 73° |
| 2026-05-04 02:10 | 34.02672 | -118.43746 | 4669 ft | 216 kts | 69° |
| 2026-05-04 02:10 | 34.03267 | -118.42026 | 4659 ft | 228 kts | 69° |
| 2026-05-04 02:10 | 34.03771 | -118.40169 | 4665 ft | 239 kts | 74° |
| 2026-05-04 02:11 | 34.04169 | -118.38194 | 4681 ft | 248 kts | 77° |
| 2026-05-04 02:11 | 34.04560 | -118.36149 | 4782 ft | 252 kts | 77° |
| 2026-05-04 02:11 | 34.04930 | -118.34080 | 4933 ft | 254 kts | 78° |
| 2026-05-04 02:11 | 34.05238 | -118.31998 | 5070 ft | 256 kts | 81° |
| 2026-05-04 02:12 | 34.05377 | -118.29843 | 5107 ft | 262 kts | 91° |
| 2026-05-04 02:12 | 34.05315 | -118.27555 | 4686 ft | 285 kts | 92° |
| 2026-05-04 02:12 | 34.05200 | -118.25084 | 4295 ft | 304 kts | 94° |
| 2026-05-04 02:12 | 34.05091 | -118.22497 | 4136 ft | 312 kts | 92° |
| 2026-05-04 02:13 | 34.05020 | -118.19833 | 3657 ft | 327 kts | 91° |
| 2026-05-04 02:13 | 34.04995 | -118.17020 | 3049 ft | 343 kts | 90° |
| 2026-05-04 02:13 | 34.04951 | -118.14123 | 2748 ft | 333 kts | 91° |
| 2026-05-04 02:13 | 34.04875 | -118.11412 | 2744 ft | 314 kts | 92° |
| 2026-05-04 02:14 | 34.04774 | -118.08865 | 2732 ft | 297 kts | 93° |
| 2026-05-04 02:14 | 34.04653 | -118.06465 | 2780 ft | 277 kts | 94° |
| 2026-05-04 02:14 | 34.04519 | -118.04230 | 2831 ft | 258 kts | 94° |
| 2026-05-04 02:14 | 34.04361 | -118.02132 | 2781 ft | 245 kts | 96° |
| 2026-05-04 02:15 | 34.04171 | -118.00137 | 2741 ft | 234 kts | 96° |
| 2026-05-04 02:15 | 34.03968 | -117.98243 | 2722 ft | 222 kts | 100° |
| 2026-05-04 02:15 | 34.03371 | -117.96620 | 2783 ft | 208 kts | 132° |
| 2026-05-04 02:15 | 34.02179 | -117.95807 | 2867 ft | 194 kts | 175° |
| 2026-05-04 02:16 | 34.00966 | -117.96208 | 2997 ft | 178 kts | 223° |
| 2026-05-04 02:16 | 34.00256 | -117.97380 | 3085 ft | 170 kts | 237° |
| 2026-05-04 02:16 | 33.99695 | -117.98638 | 3041 ft | 171 kts | 247° |
| 2026-05-04 02:16 | 33.99325 | -118.00003 | 2993 ft | 173 kts | 257° |
| 2026-05-04 02:17 | 33.99065 | -118.01453 | 2856 ft | 181 kts | 258° |
| 2026-05-04 02:17 | 33.98898 | -118.02986 | 2801 ft | 194 kts | 265° |
| 2026-05-04 02:17 | 33.98768 | -118.04699 | 2841 ft | 211 kts | 263° |
| 2026-05-04 02:17 | 33.98582 | -118.06503 | 2885 ft | 229 kts | 262° |
| 2026-05-04 02:18 | 33.98316 | -118.08502 | 2850 ft | 252 kts | 259° |
| 2026-05-04 02:18 | 33.97978 | -118.10688 | 2745 ft | 277 kts | 260° |
| 2026-05-04 02:18 | 33.97674 | -118.13036 | 2638 ft | 297 kts | 264° |
| 2026-05-04 02:18 | 33.97511 | -118.15513 | 2682 ft | 295 kts | 266° |
| 2026-05-04 02:19 | 33.97369 | -118.17966 | 2733 ft | 291 kts | 266° |
| 2026-05-04 02:19 | 33.97214 | -118.20394 | 2591 ft | 292 kts | 264° |
| 2026-05-04 02:19 | 33.96992 | -118.22843 | 2376 ft | 295 kts | 263° |
| 2026-05-04 02:19 | 33.96745 | -118.25296 | 2136 ft | 296 kts | 263° |
| 2026-05-04 02:20 | 33.96490 | -118.27708 | 1874 ft | 286 kts | 263° |
| 2026-05-04 02:20 | 33.96242 | -118.30046 | 1590 ft | 273 kts | 263° |
| 2026-05-04 02:20 | 33.96029 | -118.32210 | 1371 ft | 247 kts | 263° |
| 2026-05-04 02:20 | 33.95817 | -118.34181 | 1074 ft | 231 kts | 262° |
| 2026-05-04 02:21 | 33.95630 | -118.36043 | 824 ft | 217 kts | 263° |
| 2026-05-04 02:21 | 33.95456 | -118.37793 | 619 ft | 203 kts | 263° |
| 2026-05-04 02:21 | 33.95284 | -118.39443 | 313 ft | 196 kts | 263° |
| 2026-05-04 02:21 | 33.95129 | -118.40926 | 128 ft | 109 kts | 263° |
| 2026-05-04 02:22 | 33.95104 | -118.41173 | 125 ft | 0 kts | 263° |